createdAt,value
2022-10-09T00:00:44.783Z,101573.16
2022-10-09T00:03:31.550Z,101579.19
2022-10-09T00:05:58.694Z,101583.88
2022-10-09T00:08:25.247Z,101588.59
2022-10-09T00:10:51.660Z,101585.94
2022-10-09T00:13:18.242Z,101582.84
2022-10-09T00:15:45.753Z,101589.13
2022-10-09T00:18:13.612Z,101592.69
2022-10-09T00:20:42.677Z,101597.66
2022-10-09T00:23:10.121Z,101590.50
2022-10-09T00:25:36.539Z,101597.06
2022-10-09T00:28:04.356Z,101603.00
2022-10-09T00:30:31.049Z,101598.72
2022-10-09T00:32:57.271Z,101611.88
2022-10-09T00:35:23.605Z,101603.00
2022-10-09T00:37:49.756Z,101603.25
2022-10-09T00:40:16.233Z,101605.25
2022-10-09T00:42:44.773Z,101605.25
2022-10-09T00:45:19.322Z,101609.94
2022-10-09T00:47:52.777Z,101605.03
2022-10-09T00:50:23.372Z,101613.31
2022-10-09T00:52:54.099Z,101614.31
2022-10-09T00:55:22.297Z,101617.88
2022-10-09T00:57:50.079Z,101619.84
2022-10-09T01:00:17.329Z,101617.53
2022-10-09T01:02:43.682Z,101621.16
2022-10-09T01:05:52.567Z,101621.63
2022-10-09T01:08:31.317Z,101634.31
2022-10-09T01:11:25.085Z,101629.88
2022-10-09T01:14:15.599Z,101632.72
2022-10-09T01:17:01.544Z,101636.81
2022-10-09T01:19:56.128Z,101641.63
2022-10-09T01:22:48.570Z,101630.56
2022-10-09T01:25:22.330Z,101640.88
2022-10-09T01:27:48.901Z,101636.72
2022-10-09T01:30:15.263Z,101638.69
2022-10-09T01:32:46.659Z,101646.81
2022-10-09T01:35:14.624Z,101651.63
2022-10-09T01:37:43.525Z,101652.75
2022-10-09T01:40:11.996Z,101654.47
2022-10-09T01:42:38.259Z,101650.75
2022-10-09T01:45:05.035Z,101655.19
2022-10-09T01:47:31.153Z,101652.50
2022-10-09T01:50:06.277Z,101651.28
2022-10-09T01:52:45.307Z,101661.00
2022-10-09T01:55:31.082Z,101656.94
2022-10-09T01:58:01.445Z,101665.31
2022-10-09T02:00:30.053Z,101666.84
2022-10-09T02:02:57.156Z,101663.66
2022-10-09T02:05:27.333Z,101672.50
2022-10-09T02:07:54.966Z,101685.56
2022-10-09T02:10:22.880Z,101684.69
2022-10-09T02:12:56.630Z,101678.31
2022-10-09T02:15:30.195Z,101679.53
2022-10-09T02:18:07.519Z,101682.13
2022-10-09T02:20:38.812Z,101684.09
2022-10-09T02:23:08.004Z,101695.91
2022-10-09T02:25:35.251Z,101684.22
2022-10-09T02:28:02.832Z,101700.47
2022-10-09T02:30:37.994Z,101698.84
2022-10-09T02:33:04.855Z,101705.22
2022-10-09T02:35:31.779Z,101698.84
2022-10-09T02:37:57.981Z,101706.47
2022-10-09T02:40:24.055Z,101705.84
2022-10-09T02:42:50.564Z,101718.75
2022-10-09T02:45:16.947Z,101720.72
2022-10-09T02:47:43.040Z,101722.81
2022-10-09T02:50:09.429Z,101723.69
2022-10-09T02:52:35.545Z,101725.41
2022-10-09T02:55:01.696Z,101724.03
2022-10-09T02:57:28.338Z,101721.81
2022-10-09T02:59:54.455Z,101731.66
2022-10-09T03:02:20.706Z,101720.84
2022-10-09T03:04:47.181Z,101724.78
2022-10-09T03:07:13.285Z,101732.28
2022-10-09T03:09:39.488Z,101734.00
2022-10-09T03:12:05.789Z,101730.44
2022-10-09T03:14:31.921Z,101739.53
2022-10-09T03:16:58.098Z,101749.03
2022-10-09T03:19:24.363Z,101748.53
2022-10-09T03:21:50.514Z,101752.47
2022-10-09T03:24:16.621Z,101757.00
2022-10-09T03:26:42.972Z,101764.28
2022-10-09T03:29:09.089Z,101759.84
2022-10-09T03:31:52.799Z,101760.56
2022-10-09T03:34:20.032Z,101769.44
2022-10-09T03:36:46.172Z,101762.78
2022-10-09T03:39:12.372Z,101770.28
2022-10-09T03:41:38.767Z,101767.69
2022-10-09T03:44:04.895Z,101767.44
2022-10-09T03:46:31.167Z,101770.38
2022-10-09T03:48:57.522Z,101776.13
2022-10-09T03:51:23.640Z,101777.59
2022-10-09T03:53:49.754Z,101782.66
2022-10-09T03:56:16.184Z,101786.09
2022-10-09T03:58:42.429Z,101780.28
2022-10-09T04:01:08.949Z,101788.53
2022-10-09T04:03:35.579Z,101783.75
2022-10-09T04:06:01.732Z,101794.91
2022-10-09T04:08:28.065Z,101796.28
2022-10-09T04:10:57.155Z,101785.59
2022-10-09T04:13:23.802Z,101794.22
2022-10-09T04:15:54.085Z,101793.06
2022-10-09T04:18:20.743Z,101789.38
2022-10-09T04:20:51.504Z,101798.59
2022-10-09T04:23:23.602Z,101798.84
2022-10-09T04:25:54.923Z,101805.47
2022-10-09T04:28:22.703Z,101800.75
2022-10-09T04:30:49.008Z,101797.78
2022-10-09T04:33:15.702Z,101805.25
2022-10-09T04:35:43.498Z,101807.09
2022-10-09T04:38:10.281Z,101815.44
2022-10-09T04:40:36.768Z,101811.78
2022-10-09T04:43:03.473Z,101816.19
2022-10-09T04:45:29.897Z,101821.25
2022-10-09T04:47:56.257Z,101822.94
2022-10-09T04:50:22.555Z,101825.81
2022-10-09T04:52:58.111Z,101816.84
2022-10-09T04:55:24.765Z,101811.41
2022-10-09T04:57:51.154Z,101824.19
2022-10-09T05:00:17.800Z,101833.63
2022-10-09T05:02:44.165Z,101828.84
2022-10-09T05:05:10.298Z,101828.00
2022-10-09T05:07:37.805Z,101832.66
2022-10-09T05:10:05.087Z,101841.97
2022-10-09T05:12:31.317Z,101845.41
2022-10-09T05:14:57.674Z,101848.88
2022-10-09T05:17:23.977Z,101854.28
2022-10-09T05:19:50.156Z,101858.94
2022-10-09T05:22:16.671Z,101856.47
2022-10-09T05:24:43.010Z,101852.03
2022-10-09T05:27:09.279Z,101865.97
2022-10-09T05:29:35.889Z,101862.28
2022-10-09T05:32:02.304Z,101863.88
2022-10-09T05:34:28.653Z,101870.91
2022-10-09T05:36:55.088Z,101864.28
2022-10-09T05:39:21.530Z,101871.06
2022-10-09T05:41:47.785Z,101872.56
2022-10-09T05:44:14.422Z,101866.81
2022-10-09T05:46:40.602Z,101876.41
2022-10-09T05:49:06.831Z,101879.50
2022-10-09T05:51:36.064Z,101885.16
2022-10-09T05:54:03.350Z,101883.72
2022-10-09T05:56:35.076Z,101887.56
2022-10-09T05:59:09.596Z,101897.41
2022-10-09T06:01:38.825Z,101893.63
2022-10-09T06:04:08.664Z,101896.84
2022-10-09T06:06:37.703Z,101908.19
2022-10-09T06:09:05.329Z,101908.50
2022-10-09T06:11:34.804Z,101915.81
2022-10-09T06:14:03.474Z,101918.97
2022-10-09T06:16:33.064Z,101926.25
2022-10-09T06:19:00.097Z,101923.56
2022-10-09T06:21:27.860Z,101929.84
2022-10-09T06:23:57.431Z,101930.97
2022-10-09T06:26:25.280Z,101938.22
2022-10-09T06:28:51.876Z,101934.16
2022-10-09T06:31:21.253Z,101942.53
2022-10-09T06:33:49.319Z,101947.09
2022-10-09T06:36:21.039Z,101950.19
2022-10-09T06:38:47.730Z,101950.44
2022-10-09T06:41:17.019Z,101958.44
2022-10-09T06:43:52.798Z,101959.19
2022-10-09T06:46:20.951Z,101961.88
2022-10-09T06:48:47.612Z,101961.50
2022-10-09T06:51:16.119Z,101954.50
2022-10-09T06:53:48.714Z,101970.53
2022-10-09T06:56:16.378Z,101971.88
2022-10-09T06:58:43.391Z,101978.78
2022-10-09T07:01:18.933Z,101971.88
2022-10-09T07:03:51.519Z,101977.69
2022-10-09T07:06:23.347Z,101989.38
2022-10-09T07:08:56.067Z,101983.22
2022-10-09T07:11:24.732Z,101989.25
2022-10-09T07:13:53.845Z,101997.41
2022-10-09T07:16:23.227Z,101994.19
2022-10-09T07:18:49.984Z,101994.09
2022-10-09T07:21:16.782Z,102000.13
2022-10-09T07:23:43.436Z,101998.66
2022-10-09T07:26:19.088Z,102010.25
2022-10-09T07:28:46.959Z,101996.44
2022-10-09T07:31:14.210Z,102002.59
2022-10-09T07:33:43.553Z,102004.41
2022-10-09T07:36:10.690Z,101999.97
2022-10-09T07:38:37.332Z,102006.63
2022-10-09T07:41:06.928Z,102008.59
2022-10-09T07:43:38.198Z,102011.34
2022-10-09T07:46:06.934Z,102009.56
2022-10-09T07:48:34.495Z,102009.94
2022-10-09T07:51:28.366Z,102006.09
2022-10-09T07:53:56.505Z,102008.41
2022-10-09T07:56:25.217Z,102014.88
2022-10-09T07:58:53.996Z,102010.53
2022-10-09T08:01:21.952Z,102020.50
2022-10-09T08:03:49.185Z,102015.25
2022-10-09T08:06:17.648Z,102018.69
2022-10-09T08:08:45.911Z,102024.28
2022-10-09T08:11:14.644Z,102025.00
2022-10-09T08:13:42.125Z,102025.94
2022-10-09T08:16:09.525Z,102030.25
2022-10-09T08:18:36.753Z,102025.75
2022-10-09T08:21:08.378Z,102025.81
2022-10-09T08:23:35.042Z,102030.78
2022-10-09T08:26:01.806Z,102033.91
2022-10-09T08:28:28.138Z,102041.41
2022-10-09T08:30:54.632Z,102035.22
2022-10-09T08:33:22.623Z,102040.13
2022-10-09T08:35:49.389Z,102037.69
2022-10-09T08:38:37.617Z,102039.75
2022-10-09T08:41:11.083Z,102034.16
2022-10-09T08:43:43.367Z,102042.78
2022-10-09T08:46:20.733Z,102044.56
2022-10-09T08:48:49.785Z,102046.63
2022-10-09T08:51:26.084Z,102046.34
2022-10-09T08:54:12.376Z,102054.16
2022-10-09T08:56:38.540Z,102049.94
2022-10-09T08:59:05.286Z,102049.25
2022-10-09T09:01:46.797Z,102055.16
2022-10-09T09:04:54.408Z,102047.41
2022-10-09T09:07:51.444Z,102053.91
2022-10-09T09:10:51.869Z,102056.13
2022-10-09T09:13:35.322Z,102046.97
2022-10-09T09:16:04.718Z,102049.56
2022-10-09T09:18:45.551Z,102063.06
2022-10-09T09:21:43.638Z,102050.31
2022-10-09T09:24:33.150Z,102052.78
2022-10-09T09:27:08.943Z,102042.88
2022-10-09T09:29:46.113Z,102041.19
2022-10-09T09:32:19.873Z,102051.81
2022-10-09T09:34:46.610Z,102045.63
2022-10-09T09:37:12.970Z,102045.50
2022-10-09T09:40:34.958Z,102052.69
2022-10-09T09:42:27.721Z,102053.50
2022-10-09T09:45:02.507Z,102049.34
2022-10-09T09:47:42.938Z,102049.03
2022-10-09T09:50:23.418Z,102056.34
2022-10-09T09:52:55.950Z,102048.25
2022-10-09T09:55:30.773Z,102049.22
2022-10-09T09:58:04.492Z,102050.69
2022-10-09T10:00:32.574Z,102056.66
2022-10-09T10:03:06.992Z,102055.16
2022-10-09T10:05:36.859Z,102056.41
2022-10-09T10:08:24.618Z,102052.56
2022-10-09T10:10:56.884Z,102052.94
2022-10-09T10:13:37.414Z,102048.53
2022-10-09T10:16:06.602Z,102043.81
2022-10-09T10:18:39.783Z,102050.53
2022-10-09T10:21:15.389Z,102046.41
2022-10-09T10:23:45.284Z,102047.97
2022-10-09T10:26:23.772Z,102047.66
2022-10-09T10:29:00.077Z,102055.69
2022-10-09T10:32:10.217Z,102054.13
2022-10-09T10:35:04.895Z,102058.88
2022-10-09T10:38:09.329Z,102055.81
2022-10-09T10:40:41.474Z,102053.66
2022-10-09T10:43:10.533Z,102061.06
2022-10-09T10:46:15.556Z,102062.78
2022-10-09T10:48:47.551Z,102064.34
2022-10-09T10:51:25.831Z,102061.72
2022-10-09T10:54:09.246Z,102058.84
2022-10-09T10:56:40.281Z,102053.56
2022-10-09T10:59:31.285Z,102060.25
2022-10-09T11:02:36.004Z,102061.84
2022-10-09T11:05:41.234Z,102052.22
2022-10-09T11:08:13.307Z,102051.84
2022-10-09T11:10:58.742Z,102054.19
2022-10-09T11:13:31.799Z,102048.22
2022-10-09T11:16:16.597Z,102056.34
2022-10-09T11:19:05.395Z,102053.88
2022-10-09T11:21:41.148Z,102058.22
2022-10-09T11:24:39.905Z,102054.56
2022-10-09T11:27:09.633Z,102052.41
2022-10-09T11:29:45.337Z,102046.13
2022-10-09T11:32:19.705Z,102057.72
2022-10-09T11:35:01.321Z,102049.75
2022-10-09T11:37:38.451Z,102051.66
2022-10-09T11:40:45.413Z,102041.28
2022-10-09T11:43:26.737Z,102039.06
2022-10-09T11:46:15.159Z,102036.47
2022-10-09T11:49:18.286Z,102039.84
2022-10-09T11:51:56.696Z,102032.22
2022-10-09T11:54:26.800Z,102023.66
2022-10-09T11:57:03.412Z,102016.63
2022-10-09T11:59:35.705Z,102024.75
2022-10-09T12:02:20.434Z,102027.31
2022-10-09T12:04:55.186Z,102015.34
2022-10-09T12:07:32.574Z,102014.00
2022-10-09T12:10:04.253Z,102007.97
2022-10-09T12:12:30.864Z,102006.47
2022-10-09T12:14:57.767Z,101992.78
2022-10-09T12:17:24.085Z,101999.47
2022-10-09T12:20:01.311Z,101998.00
2022-10-09T12:22:39.734Z,101997.81
2022-10-09T12:25:27.300Z,102001.09
2022-10-09T12:27:55.861Z,101992.63
2022-10-09T12:30:28.409Z,101996.16
2022-10-09T12:33:01.384Z,101991.09
2022-10-09T12:35:32.506Z,101998.72
2022-10-09T12:37:58.982Z,101991.91
2022-10-09T12:40:29.114Z,101995.56
2022-10-09T12:42:59.869Z,101988.97
2022-10-09T12:45:29.952Z,101990.00
2022-10-09T12:48:08.434Z,101989.44
2022-10-09T12:50:35.535Z,101996.94
2022-10-09T12:53:12.354Z,101998.13
2022-10-09T12:55:47.865Z,101990.38
2022-10-09T12:58:28.492Z,101987.94
2022-10-09T13:01:04.380Z,101994.91
2022-10-09T13:03:43.004Z,101990.69
2022-10-09T13:06:20.240Z,101994.28
2022-10-09T13:08:52.561Z,101985.84
2022-10-09T13:11:42.660Z,101994.50
2022-10-09T13:14:45.560Z,101984.72
2022-10-09T13:17:24.526Z,101991.88
2022-10-09T13:19:52.806Z,101978.66
2022-10-09T13:22:24.878Z,101980.72
2022-10-09T13:24:55.758Z,101975.25
2022-10-09T13:27:40.906Z,101973.44
2022-10-09T13:30:09.932Z,101971.13
2022-10-09T13:32:36.627Z,101967.69
2022-10-09T13:35:03.240Z,101975.34
2022-10-09T13:37:29.729Z,101972.88
2022-10-09T13:39:57.952Z,101962.88
2022-10-09T13:42:27.451Z,101964.28
2022-10-09T13:44:53.942Z,101971.63
2022-10-09T13:47:24.500Z,101963.81
2022-10-09T13:49:51.047Z,101966.47
2022-10-09T13:52:17.475Z,101965.91
2022-10-09T13:54:43.814Z,101966.06
2022-10-09T13:57:10.049Z,101963.78
2022-10-09T13:59:37.344Z,101965.75
2022-10-09T14:02:03.705Z,101960.72
2022-10-09T14:04:30.102Z,101958.69
2022-10-09T14:06:56.312Z,101957.03
2022-10-09T14:09:22.792Z,101955.38
2022-10-09T14:11:49.301Z,101953.66
2022-10-09T14:14:15.479Z,101948.44
2022-10-09T14:16:42.104Z,101947.09
2022-10-09T14:19:09.177Z,101947.56
2022-10-09T14:21:40.416Z,101937.50
2022-10-09T14:24:06.774Z,101937.81
2022-10-09T14:26:33.747Z,101939.53
2022-10-09T14:29:01.383Z,101937.50
2022-10-09T14:31:29.185Z,101946.88
2022-10-09T14:33:58.326Z,101938.34
2022-10-09T14:36:25.088Z,101950.31
2022-10-09T14:38:51.468Z,101949.41
2022-10-09T14:41:21.084Z,101947.34
2022-10-09T14:43:48.353Z,101939.47
2022-10-09T14:46:16.734Z,101943.16
2022-10-09T14:48:46.053Z,101942.72
2022-10-09T14:51:15.440Z,101943.25
2022-10-09T14:53:41.789Z,101941.75
2022-10-09T14:56:11.150Z,101935.44
2022-10-09T14:58:38.584Z,101936.28
2022-10-09T15:01:05.482Z,101933.16
2022-10-09T15:03:34.405Z,101938.63
2022-10-09T15:06:05.721Z,101943.25
2022-10-09T15:08:34.039Z,101944.75
2022-10-09T15:11:00.290Z,101932.72
2022-10-09T15:13:27.653Z,101931.31
2022-10-09T15:16:01.478Z,101938.50
2022-10-09T15:18:29.210Z,101928.34
2022-10-09T15:20:57.155Z,101924.22
2022-10-09T15:23:23.965Z,101920.53
2022-10-09T15:25:52.033Z,101915.00
2022-10-09T15:28:18.529Z,101923.81
2022-10-09T15:30:46.368Z,101920.16
2022-10-09T15:33:13.575Z,101919.34
2022-10-09T15:35:39.969Z,101923.00
2022-10-09T15:38:07.304Z,101922.22
2022-10-09T15:40:46.601Z,101925.06
2022-10-09T15:43:14.641Z,101924.25
2022-10-09T15:45:41.554Z,101921.31
2022-10-09T15:48:17.793Z,101923.34
2022-10-09T15:50:45.931Z,101922.84
2022-10-09T15:53:14.374Z,101922.16
2022-10-09T15:55:43.066Z,101917.72
2022-10-09T15:58:09.486Z,101918.78
2022-10-09T16:00:37.618Z,101913.31
2022-10-09T16:03:05.220Z,101918.22
2022-10-09T16:05:39.850Z,101923.09
2022-10-09T16:08:06.667Z,101928.09
2022-10-09T16:10:33.334Z,101924.09
2022-10-09T16:13:00.187Z,101926.09
2022-10-09T16:15:27.077Z,101925.38
2022-10-09T16:17:53.926Z,101936.81
2022-10-09T16:20:20.232Z,101935.38
2022-10-09T16:22:47.038Z,101930.03
2022-10-09T16:25:15.235Z,101935.00
2022-10-09T16:27:41.759Z,101932.03
2022-10-09T16:30:11.382Z,101935.00
2022-10-09T16:32:40.912Z,101944.09
2022-10-09T16:35:07.633Z,101935.88
2022-10-09T16:37:37.601Z,101936.97
2022-10-09T16:40:04.517Z,101946.03
2022-10-09T16:42:32.636Z,101939.56
2022-10-09T16:45:00.037Z,101939.97
2022-10-09T16:47:26.353Z,101948.78
2022-10-09T16:49:53.757Z,101946.84
2022-10-09T16:52:20.578Z,101940.25
2022-10-09T16:54:47.977Z,101938.59
2022-10-09T16:57:17.127Z,101943.16
2022-10-09T16:59:45.024Z,101947.13
2022-10-09T17:02:13.307Z,101948.63
2022-10-09T17:04:40.507Z,101951.47
2022-10-09T17:07:08.382Z,101947.16
2022-10-09T17:09:36.788Z,101954.81
2022-10-09T17:12:12.278Z,101959.25
2022-10-09T17:14:39.747Z,101953.19
2022-10-09T17:17:08.668Z,101950.00
2022-10-09T17:19:36.082Z,101954.81
2022-10-09T17:22:04.833Z,101962.50
2022-10-09T17:24:32.074Z,101961.28
2022-10-09T17:26:58.502Z,101958.94
2022-10-09T17:29:25.441Z,101957.22
2022-10-09T17:31:52.096Z,101957.09
2022-10-09T17:34:18.881Z,101963.63
2022-10-09T17:36:45.586Z,101955.13
2022-10-09T17:39:15.027Z,101957.22
2022-10-09T17:41:45.217Z,101953.28
2022-10-09T17:44:13.752Z,101950.81
2022-10-09T17:46:40.585Z,101953.03
2022-10-09T17:49:07.203Z,101951.91
2022-10-09T17:51:36.174Z,101952.03
2022-10-09T17:54:09.507Z,101946.13
2022-10-09T17:56:39.779Z,101948.31
2022-10-09T17:59:06.588Z,101948.44
2022-10-09T18:01:33.826Z,101953.22
2022-10-09T18:04:00.369Z,101954.81
2022-10-09T18:06:29.557Z,101957.91
2022-10-09T18:08:57.413Z,101954.56
2022-10-09T18:11:25.085Z,101955.66
2022-10-09T18:13:52.182Z,101957.63
2022-10-09T18:16:34.924Z,101960.22
2022-10-09T18:19:07.088Z,101962.66
2022-10-09T18:21:34.742Z,101951.94
2022-10-09T18:24:01.197Z,101957.47
2022-10-09T18:26:27.727Z,101956.88
2022-10-09T18:28:54.556Z,101956.13
2022-10-09T18:31:25.604Z,101955.38
2022-10-09T18:33:52.833Z,101960.41
2022-10-09T18:36:22.293Z,101951.44
2022-10-09T18:38:51.348Z,101950.13
2022-10-09T18:41:18.178Z,101949.28
2022-10-09T18:43:45.918Z,101950.72
2022-10-09T18:46:14.022Z,101944.78
2022-10-09T18:48:40.770Z,101941.84
2022-10-09T18:51:12.977Z,101945.41
2022-10-09T18:53:41.675Z,101938.97
2022-10-09T18:56:09.935Z,101947.78
2022-10-09T18:58:38.332Z,101937.84
2022-10-09T19:01:07.509Z,101939.66
2022-10-09T19:03:35.936Z,101947.91
2022-10-09T19:06:04.193Z,101947.97
2022-10-09T19:08:30.550Z,101950.59
2022-10-09T19:10:57.090Z,101944.25
2022-10-09T19:13:24.543Z,101948.47
2022-10-09T19:15:57.954Z,101945.88
2022-10-09T19:18:25.935Z,101945.25
2022-10-09T19:20:53.202Z,101947.06
2022-10-09T19:23:19.673Z,101949.72
2022-10-09T19:25:52.434Z,101946.56
2022-10-09T19:28:20.081Z,101951.22
2022-10-09T19:30:47.969Z,101944.19
2022-10-09T19:33:15.738Z,101946.41
2022-10-09T19:35:51.384Z,101944.25
2022-10-09T19:38:18.739Z,101946.66
2022-10-09T19:40:46.317Z,101947.28
2022-10-09T19:43:13.768Z,101945.22
2022-10-09T19:45:40.652Z,101944.69
2022-10-09T19:48:07.624Z,101943.94
2022-10-09T19:50:39.782Z,101935.41
2022-10-09T19:53:06.178Z,101932.41
2022-10-09T19:55:33.455Z,101942.56
2022-10-09T19:58:01.154Z,101933.69
2022-10-09T20:00:29.718Z,101932.31
2022-10-09T20:02:56.594Z,101933.72
2022-10-09T20:05:23.159Z,101937.50
2022-10-09T20:07:50.344Z,101936.75
2022-10-09T20:10:17.267Z,101939.00
2022-10-09T20:12:45.075Z,101941.59
2022-10-09T20:15:11.617Z,101937.81
2022-10-09T20:17:38.208Z,101941.94
2022-10-09T20:20:05.965Z,101944.94
2022-10-09T20:22:32.480Z,101949.06
2022-10-09T20:24:59.277Z,101950.13
2022-10-09T20:27:25.647Z,101946.91
2022-10-09T20:29:53.218Z,101949.38
2022-10-09T20:32:19.790Z,101939.75
2022-10-09T20:34:46.577Z,101947.53
2022-10-09T20:37:13.270Z,101948.63
2022-10-09T20:39:39.692Z,101947.88
2022-10-09T20:42:07.021Z,101943.97
2022-10-09T20:44:33.621Z,101944.63
2022-10-09T20:47:00.954Z,101938.25
2022-10-09T20:49:27.408Z,101941.16
2022-10-09T20:51:54.638Z,101933.91
2022-10-09T20:54:21.496Z,101930.69
2022-10-09T20:56:48.909Z,101923.31
2022-10-09T20:59:17.355Z,101925.38
2022-10-09T21:01:44.232Z,101925.16
2022-10-09T21:04:11.473Z,101919.09
2022-10-09T21:06:38.030Z,101932.28
2022-10-09T21:09:04.411Z,101929.91
2022-10-09T21:11:38.173Z,101919.31
2022-10-09T21:14:05.023Z,101918.31
2022-10-09T21:16:31.143Z,101925.91
2022-10-09T21:19:00.527Z,101923.06
2022-10-09T21:21:29.676Z,101921.13
2022-10-09T21:23:57.734Z,101923.81
2022-10-09T21:26:24.734Z,101920.44
2022-10-09T21:28:54.246Z,101912.09
2022-10-09T21:31:28.185Z,101914.59
2022-10-09T21:33:55.727Z,101921.47
2022-10-09T21:36:33.582Z,101915.81
2022-10-09T21:39:00.627Z,101908.13
2022-10-09T21:41:26.909Z,101910.72
2022-10-09T21:43:53.421Z,101909.50
2022-10-09T21:46:19.575Z,101906.06
2022-10-09T21:48:46.175Z,101907.78
2022-10-09T21:51:12.374Z,101906.78
2022-10-09T21:53:38.870Z,101909.50
2022-10-09T21:56:05.935Z,101911.69
2022-10-09T21:58:32.308Z,101906.16
2022-10-09T22:01:00.771Z,101907.53
2022-10-09T22:03:30.230Z,101905.81
2022-10-09T22:05:56.593Z,101907.53
2022-10-09T22:08:23.915Z,101905.59
2022-10-09T22:10:50.910Z,101905.81
2022-10-09T22:13:19.059Z,101909.38
2022-10-09T22:15:50.129Z,101899.31
2022-10-09T22:18:17.431Z,101905.06
2022-10-09T22:20:46.938Z,101898.38
2022-10-09T22:23:13.092Z,101899.47
2022-10-09T22:25:39.764Z,101896.13
2022-10-09T22:28:06.391Z,101891.38
2022-10-09T22:30:33.271Z,101888.78
2022-10-09T22:32:59.551Z,101889.75
2022-10-09T22:35:26.465Z,101880.78
2022-10-09T22:37:52.998Z,101876.94
2022-10-09T22:40:19.833Z,101880.75
2022-10-09T22:42:46.043Z,101883.50
2022-10-09T22:45:12.397Z,101876.59
2022-10-09T22:47:38.527Z,101882.44
2022-10-09T22:50:04.846Z,101877.47
2022-10-09T22:52:31.199Z,101879.44
2022-10-09T22:54:57.301Z,101874.56
2022-10-09T22:57:23.587Z,101886.59
2022-10-09T22:59:49.722Z,101876.97
2022-10-09T23:02:16.030Z,101868.22
2022-10-09T23:04:42.398Z,101865.97
2022-10-09T23:07:09.166Z,101865.44
2022-10-09T23:09:35.301Z,101857.44
2022-10-09T23:12:01.821Z,101853.00
2022-10-09T23:14:28.372Z,101849.88
2022-10-09T23:16:54.689Z,101853.13
2022-10-09T23:19:20.806Z,101858.97
2022-10-09T23:21:47.303Z,101851.81
2022-10-09T23:24:16.715Z,101849.88
2022-10-09T23:26:49.307Z,101849.44
2022-10-09T23:29:17.863Z,101852.13
2022-10-09T23:31:44.717Z,101850.81
2022-10-09T23:34:11.090Z,101855.03
2022-10-09T23:36:37.684Z,101852.22
2022-10-09T23:39:04.887Z,101865.38
2022-10-09T23:41:31.761Z,101858.25
2022-10-09T23:43:57.904Z,101863.88
2022-10-09T23:46:27.441Z,101858.28
2022-10-09T23:48:54.550Z,101853.66
2022-10-09T23:51:23.487Z,101848.34
2022-10-09T23:53:50.225Z,101851.91
2022-10-09T23:56:28.804Z,101845.53
2022-10-09T23:58:56.238Z,101835.72
